West Palm Beach, FL (33401)

5:03 PM EDT on April 21, 2015 (GMT -0400)
President Country Club West Palm Beach | | Change Station
CLOSE
Current Station
Personal Weather Station
Location: West Palm Beach, FL
Elevation: 60 ft
Nearby Weather Stations

Elev 60 ft 26.73 °N, 80.08 °W | Updated 5 minutes ago

Mostly Cloudy
Mostly Cloudy
80.7 °F
Feels Like 86 °F
N
3.0
Wind Variable Wind from ESE
Gusts 5.0 mph

Today
High -- | Low -- °F
--% Chance of Precip.
Yesterday
High -- | Low -- °F
Precip. -- in
6:51 AM 7:47 PM
Waxing Crescent, 12% visible
Pressure 29.94 in
Visibility 10.0 miles
Clouds Scattered Clouds 2800 ft
Scattered Clouds 8000 ft
Mostly Cloudy 10000 ft
Heat Index 86 °F
Dew Point 74 °F
Humidity 79%
Rainfall 0.00 in
Snow Depth Not available.
UV 3 out of 12
Pollen 3.60 out of 12
Air Quality Not available.
Flu Activity Local Activity
METAR KPBI 212053Z 12006KT 10SM SCT028 SCT080 BKN100 28/22 A2994 RMK AO2 SLP137 CB DSNT S T02780217 56016

More Conditions Fewer Conditions

Pressure 29.94 in
Visibility 10.0 miles
Clouds Scattered Clouds 2800 ft
Scattered Clouds 8000 ft
Mostly Cloudy 10000 ft
Heat Index 86 °F
Dew Point 74 °F
Humidity 79%
Rainfall 0.00 in
Snow Depth Not available.
UV 3 out of 12
Pollen 3.60 out of 12
Air Quality Not available.
Flu Activity Local Activity
METAR KPBI 212053Z 12006KT 10SM SCT028 SCT080 BKN100 28/22 A2994 RMK AO2 SLP137 CB DSNT S T02780217 56016

More Conditions Fewer Conditions

10-Day Weather Forecast

Almanac

Astronomy

Apr. 21, 2015 Rise Set
Actual Time
Civil Twilight
Nautical Twilight
Astronomical Twilight
Moon
Length of Visible Light
Length of Day
Tomorrow will be .
, % of the Moon is Illuminated

Today's Extremes

State Highs State Lows

Community

WunderPhotos

Upload Photos

1,815,540 photos uploaded!

WunderBlogs® & News

Nearby

Air Quality

  Air Quality AQ Index Pollutant
Not available.

Snow Depth

Station Depth Elevation

Earthquake Activity

City Distance Mag. Time & Date
Minimum magnitude displayed is 2.5.

Coastal Water Temperatures

Place Temperature

Stations

Nearby Weather Stations

Station Location Temp. Windchill Dew Point Humidity Wind Precip. Elev Updated Type